createdAt,value
2023-04-19T00:00:15.294Z,500.00
2023-04-19T00:01:15.791Z,500.00
2023-04-19T00:02:15.353Z,500.00
2023-04-19T00:03:15.524Z,441.00
2023-04-19T00:04:15.400Z,414.00
2023-04-19T00:05:15.022Z,406.00
2023-04-19T00:06:15.795Z,409.00
2023-04-19T00:07:15.300Z,434.00
2023-04-19T00:08:15.171Z,453.00
2023-04-19T00:09:15.799Z,475.00
2023-04-19T00:10:15.249Z,505.00
2023-04-19T00:11:15.311Z,500.00
2023-04-19T00:12:15.379Z,500.00
2023-04-19T00:13:15.455Z,499.00
2023-04-19T00:14:15.649Z,503.00
2023-04-19T00:15:15.529Z,501.00
2023-04-19T00:16:15.656Z,500.00
2023-04-19T00:17:15.647Z,500.00
2023-04-19T00:18:15.713Z,497.00
2023-04-19T00:19:15.754Z,503.00
2023-04-19T00:20:15.823Z,500.00
2023-04-19T00:21:15.879Z,501.00
2023-04-19T00:22:15.926Z,501.00
2023-04-19T00:23:15.986Z,504.00
2023-04-19T00:24:16.209Z,502.00
2023-04-19T00:25:16.111Z,500.00
2023-04-19T00:26:16.163Z,500.00
2023-04-19T00:27:16.220Z,506.00
2023-04-19T00:28:16.315Z,502.00
2023-04-19T00:29:16.445Z,500.00
2023-04-19T00:30:16.406Z,503.00
2023-04-19T00:31:16.510Z,504.00
2023-04-19T00:32:16.514Z,506.00
2023-04-19T00:33:16.569Z,506.00
2023-04-19T00:34:16.843Z,505.00
2023-04-19T00:35:16.695Z,503.00
2023-04-19T00:36:16.752Z,505.00
2023-04-19T00:37:17.192Z,504.00
2023-04-19T00:38:17.194Z,501.00
2023-04-19T00:39:17.203Z,505.00
2023-04-19T00:40:17.202Z,506.00
2023-04-19T00:41:17.193Z,506.00
2023-04-19T00:42:17.273Z,502.00
2023-04-19T00:43:17.193Z,500.00
2023-04-19T00:44:17.362Z,502.00
2023-04-19T00:45:17.311Z,501.00
2023-04-19T00:46:17.350Z,503.00
2023-04-19T00:47:17.382Z,503.00
2023-04-19T00:48:17.442Z,511.00
2023-04-19T00:49:17.503Z,503.00
2023-04-19T00:50:17.566Z,512.00
2023-04-19T00:51:17.649Z,509.00
2023-04-19T00:52:17.685Z,507.00
2023-04-19T00:53:18.096Z,507.00
2023-04-19T00:54:18.141Z,502.00
2023-04-19T00:55:18.141Z,506.00
2023-04-19T00:56:18.143Z,500.00
2023-04-19T00:57:18.182Z,507.00
2023-04-19T00:58:18.167Z,509.00
2023-04-19T00:59:18.149Z,510.00
2023-04-19T01:00:18.152Z,503.00
2023-04-19T01:01:18.314Z,505.00
2023-04-19T01:02:18.323Z,508.00
2023-04-19T01:03:18.370Z,503.00
2023-04-19T01:04:18.850Z,510.00
2023-04-19T01:05:18.394Z,500.00
2023-04-19T01:06:18.449Z,503.00
2023-04-19T01:07:18.512Z,511.00
2023-04-19T01:08:18.557Z,509.00
2023-04-19T01:09:18.629Z,506.00
2023-04-19T01:10:18.688Z,504.00
2023-04-19T01:11:18.743Z,506.00
2023-04-19T01:12:18.800Z,508.00
2023-04-19T01:13:18.849Z,500.00
2023-04-19T01:14:18.918Z,511.00
2023-04-19T01:15:18.995Z,511.00
2023-04-19T01:16:19.061Z,500.00
2023-04-19T01:17:19.105Z,509.00
2023-04-19T01:18:19.132Z,500.00
2023-04-19T01:19:19.194Z,507.00
2023-04-19T01:20:19.818Z,507.00
2023-04-19T01:21:19.316Z,503.00
2023-04-19T01:22:19.353Z,510.00
2023-04-19T01:23:19.418Z,502.00
2023-04-19T01:24:19.464Z,504.00
2023-04-19T01:25:19.516Z,504.00
2023-04-19T01:26:19.579Z,506.00
2023-04-19T01:27:19.681Z,507.00
2023-04-19T01:28:19.710Z,505.00
2023-04-19T01:29:19.756Z,507.00
2023-04-19T01:30:19.829Z,503.00
2023-04-19T01:31:19.907Z,507.00
2023-04-19T01:32:19.991Z,501.00
2023-04-19T01:33:20.129Z,500.00
2023-04-19T01:34:20.052Z,506.00
2023-04-19T01:35:20.108Z,509.00
2023-04-19T01:36:20.166Z,508.00
2023-04-19T01:37:20.224Z,507.00
2023-04-19T01:38:20.282Z,506.00
2023-04-19T01:39:20.338Z,506.00
2023-04-19T01:40:20.408Z,505.00
2023-04-19T01:41:20.469Z,506.00
2023-04-19T01:42:20.545Z,507.00
2023-04-19T01:43:20.602Z,504.00
2023-04-19T01:44:20.659Z,508.00
2023-04-19T01:45:20.734Z,504.00
2023-04-19T01:46:20.816Z,504.00
2023-04-19T01:47:20.849Z,507.00
2023-04-19T01:48:20.907Z,505.00
2023-04-19T01:49:22.044Z,505.00
2023-04-19T01:50:21.029Z,506.00
2023-04-19T01:51:21.084Z,502.00
2023-04-19T01:52:21.138Z,506.00
2023-04-19T01:53:21.217Z,510.00
2023-04-19T01:54:21.260Z,507.00
2023-04-19T01:55:21.329Z,504.00
2023-04-19T01:56:21.383Z,507.00
2023-04-19T01:57:21.448Z,505.00
2023-04-19T01:58:21.515Z,505.00
2023-04-19T01:59:21.570Z,515.00
2023-04-19T02:00:21.613Z,506.00
2023-04-19T02:01:21.776Z,508.00
2023-04-19T02:02:22.015Z,508.00
2023-04-19T02:03:21.930Z,508.00
2023-04-19T02:04:21.905Z,504.00
2023-04-19T02:05:21.944Z,506.00
2023-04-19T02:06:21.987Z,508.00
2023-04-19T02:07:22.046Z,506.00
2023-04-19T02:08:22.094Z,512.00
2023-04-19T02:09:22.161Z,508.00
2023-04-19T02:10:22.213Z,508.00
2023-04-19T02:11:22.274Z,507.00
2023-04-19T02:12:22.341Z,506.00
2023-04-19T02:13:22.387Z,500.00
2023-04-19T02:14:22.452Z,509.00
2023-04-19T02:15:22.500Z,504.00
2023-04-19T02:16:22.587Z,508.00
2023-04-19T02:17:22.675Z,509.00
2023-04-19T02:18:22.688Z,507.00
2023-04-19T02:19:22.741Z,510.00
2023-04-19T02:20:23.186Z,508.00
2023-04-19T02:21:23.220Z,512.00
2023-04-19T02:22:23.186Z,507.00
2023-04-19T02:23:23.198Z,506.00
2023-04-19T02:24:23.196Z,500.00
2023-04-19T02:25:23.189Z,508.00
2023-04-19T02:26:23.196Z,509.00
2023-04-19T02:27:23.211Z,507.00
2023-04-19T02:28:23.265Z,508.00
2023-04-19T02:29:23.322Z,508.00
2023-04-19T02:30:23.385Z,507.00
2023-04-19T02:31:23.531Z,504.00
2023-04-19T02:32:23.540Z,507.00
2023-04-19T02:33:23.558Z,506.00
2023-04-19T02:34:23.616Z,509.00
2023-04-19T02:35:23.695Z,511.00
2023-04-19T02:36:23.723Z,508.00
2023-04-19T02:37:24.153Z,507.00
2023-04-19T02:38:24.203Z,509.00
2023-04-19T02:39:24.222Z,506.00
2023-04-19T02:40:24.210Z,501.00
2023-04-19T02:41:24.214Z,501.00
2023-04-19T02:42:24.199Z,511.00
2023-04-19T02:43:24.223Z,510.00
2023-04-19T02:44:24.200Z,505.00
2023-04-19T02:45:24.230Z,508.00
2023-04-19T02:46:24.354Z,509.00
2023-04-19T02:47:24.354Z,512.00
2023-04-19T02:48:24.394Z,506.00
2023-04-19T02:49:24.469Z,510.00
2023-04-19T02:50:24.537Z,509.00
2023-04-19T02:51:24.568Z,508.00
2023-04-19T02:52:24.626Z,509.00
2023-04-19T02:53:24.716Z,506.00
2023-04-19T02:54:24.747Z,513.00
2023-04-19T02:55:24.812Z,515.00
2023-04-19T02:56:24.878Z,505.00
2023-04-19T02:57:24.935Z,511.00
2023-04-19T02:58:24.992Z,506.00
2023-04-19T02:59:25.061Z,509.00
2023-04-19T03:00:25.113Z,518.00
2023-04-19T03:01:25.224Z,505.00
2023-04-19T03:02:25.313Z,505.00
2023-04-19T03:03:25.363Z,508.00
2023-04-19T03:04:25.377Z,511.00
2023-04-19T03:05:25.428Z,509.00
2023-04-19T03:06:25.480Z,509.00
2023-04-19T03:07:25.550Z,509.00
2023-04-19T03:08:25.622Z,507.00
2023-04-19T03:09:25.694Z,510.00
2023-04-19T03:10:25.727Z,512.00
2023-04-19T03:11:25.797Z,513.00
2023-04-19T03:12:25.864Z,509.00
2023-04-19T03:13:25.934Z,510.00
2023-04-19T03:14:26.030Z,511.00
2023-04-19T03:15:26.033Z,511.00
2023-04-19T03:16:26.301Z,506.00
2023-04-19T03:17:26.239Z,506.00
2023-04-19T03:18:26.243Z,508.00
2023-04-19T03:19:26.296Z,510.00
2023-04-19T03:20:26.352Z,505.00
2023-04-19T03:21:26.412Z,509.00
2023-04-19T03:22:26.476Z,508.00
2023-04-19T03:23:26.529Z,512.00
2023-04-19T03:24:26.579Z,511.00
2023-04-19T03:25:26.671Z,510.00
2023-04-19T03:26:26.718Z,506.00
2023-04-19T03:27:26.761Z,513.00
2023-04-19T03:28:26.831Z,512.00
2023-04-19T03:29:26.886Z,505.00
2023-04-19T03:30:26.938Z,508.00
2023-04-19T03:31:27.017Z,507.00
2023-04-19T03:32:27.083Z,513.00
2023-04-19T03:33:27.112Z,511.00
2023-04-19T03:34:27.181Z,506.00
2023-04-19T03:35:27.238Z,507.00
2023-04-19T03:36:27.296Z,506.00
2023-04-19T03:37:27.366Z,508.00
2023-04-19T03:38:27.439Z,510.00
2023-04-19T03:39:27.480Z,510.00
2023-04-19T03:40:27.552Z,512.00
2023-04-19T03:41:27.633Z,509.00
2023-04-19T03:42:29.199Z,511.00
2023-04-19T03:43:27.655Z,505.00
2023-04-19T03:44:27.649Z,517.00
2023-04-19T03:45:27.660Z,510.00
2023-04-19T03:46:27.680Z,511.00
2023-04-19T03:47:27.662Z,511.00
2023-04-19T03:48:27.624Z,512.00
2023-04-19T03:49:27.643Z,509.00
2023-04-19T03:50:27.613Z,510.00
2023-04-19T03:51:27.613Z,507.00
2023-04-19T03:52:27.597Z,510.00
2023-04-19T03:53:27.593Z,508.00
2023-04-19T03:54:27.578Z,509.00
2023-04-19T03:55:27.577Z,510.00
2023-04-19T03:56:27.581Z,511.00
2023-04-19T03:57:27.589Z,509.00
2023-04-19T03:58:27.546Z,502.00
2023-04-19T03:59:27.540Z,510.00
2023-04-19T04:00:27.565Z,507.00
2023-04-19T04:01:27.526Z,503.00
2023-04-19T04:02:27.702Z,511.00
2023-04-19T04:03:27.933Z,511.00
2023-04-19T04:04:27.787Z,509.00
2023-04-19T04:05:27.724Z,510.00
2023-04-19T04:06:27.553Z,505.00
2023-04-19T04:07:27.599Z,506.00
2023-04-19T04:08:28.356Z,507.00
2023-04-19T04:09:28.354Z,508.00
2023-04-19T04:10:27.798Z,508.00
2023-04-19T04:11:27.857Z,511.00
2023-04-19T04:12:27.928Z,510.00
2023-04-19T04:13:29.617Z,512.00
2023-04-19T04:14:28.174Z,511.00
2023-04-19T04:15:28.227Z,508.00
2023-04-19T04:16:28.456Z,507.00
2023-04-19T04:17:28.401Z,509.00
2023-04-19T04:18:28.430Z,509.00
2023-04-19T04:19:28.468Z,507.00
2023-04-19T04:20:28.551Z,514.00
2023-04-19T04:21:28.599Z,502.00
2023-04-19T04:22:28.657Z,506.00
2023-04-19T04:23:28.727Z,510.00
2023-04-19T04:24:29.060Z,510.00
2023-04-19T04:25:29.232Z,511.00
2023-04-19T04:26:29.244Z,507.00
2023-04-19T04:27:29.246Z,508.00
2023-04-19T04:28:29.245Z,508.00
2023-04-19T04:29:29.270Z,505.00
2023-04-19T04:30:29.310Z,504.00
2023-04-19T04:31:31.933Z,515.00
2023-04-19T04:32:29.282Z,514.00
2023-04-19T04:33:29.252Z,515.00
2023-04-19T04:34:29.270Z,515.00
2023-04-19T04:35:29.254Z,513.00
2023-04-19T04:36:29.260Z,514.00
2023-04-19T04:37:29.385Z,505.00
2023-04-19T04:38:29.256Z,510.00
2023-04-19T04:39:29.260Z,512.00
2023-04-19T04:40:29.265Z,511.00
2023-04-19T04:41:29.267Z,506.00
2023-04-19T04:42:29.266Z,513.00
2023-04-19T04:43:30.258Z,512.00
2023-04-19T04:44:29.268Z,510.00
2023-04-19T04:45:29.429Z,503.00
2023-04-19T04:46:29.397Z,510.00
2023-04-19T04:47:30.345Z,509.00
2023-04-19T04:48:30.277Z,510.00
2023-04-19T04:49:29.270Z,509.00
2023-04-19T04:50:29.284Z,509.00
2023-04-19T04:51:29.285Z,510.00
2023-04-19T04:52:29.340Z,513.00
2023-04-19T04:53:29.402Z,508.00
2023-04-19T04:54:29.468Z,505.00
2023-04-19T04:55:29.529Z,512.00
2023-04-19T04:56:29.619Z,512.00
2023-04-19T04:57:30.400Z,510.00
2023-04-19T04:58:29.723Z,510.00
2023-04-19T04:59:30.397Z,510.00
2023-04-19T05:00:30.398Z,510.00
2023-04-19T05:01:30.379Z,512.00
2023-04-19T05:02:30.994Z,506.00
2023-04-19T05:03:30.320Z,511.00
2023-04-19T05:04:30.941Z,504.00
2023-04-19T05:05:30.309Z,512.00
2023-04-19T05:06:30.403Z,514.00
2023-04-19T05:07:30.904Z,515.00
2023-04-19T05:08:30.908Z,514.00
2023-04-19T05:09:30.914Z,513.00
2023-04-19T05:10:30.427Z,508.00
2023-04-19T05:11:30.495Z,509.00
2023-04-19T05:12:30.584Z,510.00
2023-04-19T05:13:30.631Z,513.00
2023-04-19T05:14:30.679Z,511.00
2023-04-19T05:15:30.751Z,512.00
2023-04-19T05:16:30.831Z,506.00
2023-04-19T05:17:30.917Z,510.00
2023-04-19T05:18:30.923Z,512.00
2023-04-19T05:19:30.988Z,512.00
2023-04-19T05:20:31.049Z,511.00
2023-04-19T05:21:31.406Z,515.00
2023-04-19T05:22:31.198Z,511.00
2023-04-19T05:23:31.253Z,510.00
2023-04-19T05:24:31.313Z,516.00
2023-04-19T05:25:31.392Z,510.00
2023-04-19T05:26:31.432Z,516.00
2023-04-19T05:27:31.500Z,516.00
2023-04-19T05:28:31.582Z,514.00
2023-04-19T05:29:31.648Z,515.00
2023-04-19T05:30:31.697Z,506.00
2023-04-19T05:31:31.825Z,511.00
2023-04-19T05:32:31.897Z,509.00
2023-04-19T05:33:31.909Z,511.00
2023-04-19T05:34:31.958Z,512.00
2023-04-19T05:35:32.434Z,511.00
2023-04-19T05:36:32.062Z,516.00
2023-04-19T05:37:32.133Z,510.00
2023-04-19T05:38:32.564Z,511.00
2023-04-19T05:39:32.275Z,516.00
2023-04-19T05:40:32.417Z,511.00
2023-04-19T05:41:32.378Z,515.00
2023-04-19T05:42:32.555Z,511.00
2023-04-19T05:43:33.414Z,508.00
2023-04-19T05:44:32.582Z,515.00
2023-04-19T05:45:32.938Z,512.00
2023-04-19T05:46:32.773Z,514.00
2023-04-19T05:47:32.956Z,513.00
2023-04-19T05:48:32.840Z,514.00
2023-04-19T05:49:32.941Z,511.00
2023-04-19T05:50:32.946Z,514.00
2023-04-19T05:51:33.053Z,511.00
2023-04-19T05:52:33.471Z,517.00
2023-04-19T05:53:33.430Z,515.00
2023-04-19T05:54:33.140Z,512.00
2023-04-19T05:55:33.181Z,515.00
2023-04-19T05:56:33.320Z,512.00
2023-04-19T05:57:33.313Z,517.00
2023-04-19T05:58:33.447Z,512.00
2023-04-19T05:59:33.970Z,519.00
2023-04-19T06:00:33.528Z,516.00
2023-04-19T06:01:34.457Z,520.00
2023-04-19T06:02:33.714Z,529.00
2023-04-19T06:03:33.974Z,531.00
2023-04-19T06:04:34.664Z,540.00
2023-04-19T06:05:33.895Z,548.00
2023-04-19T06:06:33.899Z,543.00
2023-04-19T06:07:37.847Z,547.00
2023-04-19T06:08:41.291Z,548.00
2023-04-19T06:09:33.932Z,549.00
2023-04-19T06:10:48.818Z,552.00
2023-04-19T06:11:46.794Z,549.00
2023-04-19T06:12:33.875Z,549.00
2023-04-19T06:13:34.433Z,554.00
2023-04-19T06:14:35.430Z,561.00
2023-04-19T06:15:34.353Z,572.00
2023-04-19T06:16:34.553Z,582.00
2023-04-19T06:17:34.333Z,589.00
2023-04-19T06:18:34.337Z,595.00
2023-04-19T06:19:34.436Z,595.00
2023-04-19T06:20:34.344Z,582.00
2023-04-19T06:21:34.390Z,592.00
2023-04-19T06:22:34.384Z,585.00
2023-04-19T06:23:34.381Z,596.00
2023-04-19T06:24:35.432Z,594.00
2023-04-19T06:25:35.347Z,603.00
2023-04-19T06:26:35.509Z,608.00
2023-04-19T06:27:34.524Z,597.00
2023-04-19T06:28:34.545Z,605.00
2023-04-19T06:29:34.577Z,602.00
2023-04-19T06:30:35.464Z,606.00
2023-04-19T06:31:34.738Z,612.00
2023-04-19T06:32:34.737Z,606.00
2023-04-19T06:33:35.847Z,599.00
2023-04-19T06:34:35.351Z,602.00
2023-04-19T06:35:34.822Z,608.00
2023-04-19T06:36:35.876Z,608.00
2023-04-19T06:37:34.943Z,609.00
2023-04-19T06:38:34.964Z,605.00
2023-04-19T06:39:35.509Z,611.00
2023-04-19T06:40:35.362Z,610.00
2023-04-19T06:41:35.308Z,608.00
2023-04-19T06:42:35.372Z,613.00
2023-04-19T06:43:35.469Z,608.00
2023-04-19T06:44:35.367Z,607.00
2023-04-19T06:45:35.518Z,616.00
2023-04-19T06:46:35.367Z,619.00
2023-04-19T06:47:43.084Z,616.00
2023-04-19T06:48:35.491Z,616.00
2023-04-19T06:49:35.377Z,618.00
2023-04-19T06:50:36.618Z,620.00
2023-04-19T06:51:35.398Z,623.00
2023-04-19T06:52:35.369Z,621.00
2023-04-19T06:53:35.553Z,623.00
2023-04-19T06:54:35.482Z,619.00
2023-04-19T06:55:35.487Z,613.00
2023-04-19T06:56:35.341Z,620.00
2023-04-19T06:57:35.355Z,616.00
2023-04-19T06:58:35.777Z,610.00
2023-04-19T06:59:35.396Z,607.00
2023-04-19T07:00:35.584Z,613.00
2023-04-19T07:01:35.492Z,612.00
2023-04-19T07:02:35.611Z,609.00
2023-04-19T07:03:35.649Z,607.00
2023-04-19T07:04:36.109Z,613.00
2023-04-19T07:05:35.543Z,607.00
2023-04-19T07:06:35.973Z,602.00
2023-04-19T07:07:35.638Z,607.00
2023-04-19T07:08:48.658Z,601.00
2023-04-19T07:09:35.682Z,602.00
2023-04-19T07:10:35.634Z,602.00
2023-04-19T07:11:35.952Z,603.00
2023-04-19T07:12:35.642Z,604.00
2023-04-19T07:13:35.920Z,607.00
2023-04-19T07:14:35.614Z,605.00
2023-04-19T07:15:35.653Z,603.00
2023-04-19T07:16:35.971Z,594.00
2023-04-19T07:17:35.603Z,599.00
2023-04-19T07:18:35.575Z,601.00
2023-04-19T07:19:35.583Z,597.00
2023-04-19T07:20:35.743Z,596.00
2023-04-19T07:21:35.948Z,593.00
2023-04-19T07:22:35.556Z,592.00
2023-04-19T07:23:35.963Z,593.00
2023-04-19T07:24:35.547Z,596.00
2023-04-19T07:25:35.620Z,595.00
2023-04-19T07:26:35.517Z,594.00
2023-04-19T07:27:35.513Z,585.00
2023-04-19T07:28:39.137Z,588.00
2023-04-19T07:29:35.499Z,588.00
2023-04-19T07:30:35.492Z,589.00
2023-04-19T07:31:35.490Z,589.00
2023-04-19T07:32:36.125Z,590.00
2023-04-19T07:33:35.494Z,595.00
2023-04-19T07:34:35.952Z,586.00
2023-04-19T07:35:36.450Z,593.00
2023-04-19T07:36:35.485Z,587.00
2023-04-19T07:37:35.952Z,587.00
2023-04-19T07:38:35.456Z,591.00
2023-04-19T07:39:35.431Z,592.00
2023-04-19T07:40:35.447Z,589.00
2023-04-19T07:41:36.475Z,585.00
2023-04-19T07:42:35.456Z,587.00
2023-04-19T07:43:35.392Z,589.00
2023-04-19T07:44:35.460Z,584.00
2023-04-19T07:45:35.397Z,587.00
2023-04-19T07:46:35.565Z,587.00
2023-04-19T07:47:35.458Z,585.00
2023-04-19T07:48:35.961Z,589.00
2023-04-19T07:49:35.503Z,585.00
2023-04-19T07:50:35.996Z,587.00
2023-04-19T07:51:35.586Z,589.00
2023-04-19T07:52:36.669Z,588.00
2023-04-19T07:53:35.668Z,587.00
2023-04-19T07:54:36.479Z,591.00
2023-04-19T07:55:35.960Z,585.00
2023-04-19T07:56:35.774Z,591.00
2023-04-19T07:57:36.045Z,584.00
2023-04-19T07:58:35.852Z,584.00
2023-04-19T07:59:35.982Z,586.00
2023-04-19T08:00:35.922Z,591.00
2023-04-19T08:01:36.133Z,585.00
2023-04-19T08:02:36.163Z,588.00
2023-04-19T08:03:36.415Z,589.00
2023-04-19T08:04:37.022Z,584.00
2023-04-19T08:05:36.527Z,585.00
2023-04-19T08:06:36.158Z,585.00
2023-04-19T08:07:36.467Z,581.00
2023-04-19T08:08:36.968Z,581.00
2023-04-19T08:09:36.254Z,582.00
2023-04-19T08:10:36.280Z,583.00
2023-04-19T08:11:36.328Z,582.00
2023-04-19T08:12:42.805Z,583.00
2023-04-19T08:13:36.528Z,584.00
2023-04-19T08:14:47.606Z,585.00
2023-04-19T08:16:03.494Z,584.00
2023-04-19T08:17:41.785Z,584.00
2023-04-19T08:18:36.395Z,584.00
2023-04-19T08:19:36.325Z,586.00
2023-04-19T08:20:36.483Z,589.00
2023-04-19T08:21:41.000Z,591.00
2023-04-19T08:22:36.294Z,584.00
2023-04-19T08:23:47.294Z,586.00
2023-04-19T08:24:36.278Z,584.00
2023-04-19T08:25:36.490Z,586.00
2023-04-19T08:26:36.265Z,587.00
2023-04-19T08:27:36.252Z,592.00
2023-04-19T08:28:36.255Z,588.00
2023-04-19T08:29:37.023Z,589.00
2023-04-19T08:30:36.232Z,593.00
2023-04-19T08:31:36.280Z,587.00
2023-04-19T08:32:36.518Z,592.00
2023-04-19T08:33:36.221Z,590.00
2023-04-19T08:34:36.504Z,586.00
2023-04-19T08:35:36.490Z,588.00
2023-04-19T08:36:43.413Z,586.00
2023-04-19T08:37:36.189Z,587.00
2023-04-19T08:38:36.188Z,588.00
2023-04-19T08:39:36.432Z,589.00
2023-04-19T08:40:37.473Z,593.00
2023-04-19T08:41:36.158Z,592.00
2023-04-19T08:42:37.241Z,588.00
2023-04-19T08:43:36.501Z,584.00
2023-04-19T08:44:37.387Z,588.00
2023-04-19T08:45:36.311Z,588.00
2023-04-19T08:46:36.253Z,589.00
2023-04-19T08:47:41.945Z,586.00
2023-04-19T08:48:36.206Z,589.00
2023-04-19T08:49:36.115Z,590.00
2023-04-19T08:50:48.497Z,592.00
2023-04-19T08:51:36.080Z,589.00
2023-04-19T08:52:47.874Z,590.00
2023-04-19T08:53:36.089Z,589.00
2023-04-19T08:54:36.509Z,591.00
2023-04-19T08:55:36.052Z,593.00
2023-04-19T08:56:36.176Z,595.00
2023-04-19T08:57:36.101Z,588.00
2023-04-19T08:58:46.666Z,591.00
2023-04-19T08:59:36.489Z,592.00
2023-04-19T09:00:36.487Z,592.00
2023-04-19T09:01:36.682Z,592.00
2023-04-19T09:02:36.587Z,591.00
2023-04-19T09:03:47.284Z,591.00
2023-04-19T09:04:37.336Z,592.00
2023-04-19T09:05:36.840Z,592.00
2023-04-19T09:06:36.734Z,593.00
2023-04-19T09:07:37.559Z,591.00
2023-04-19T09:08:36.993Z,592.00
2023-04-19T09:09:43.122Z,588.00
2023-04-19T09:10:36.326Z,592.00
2023-04-19T09:11:36.320Z,593.00
2023-04-19T09:12:36.991Z,591.00
2023-04-19T09:13:36.312Z,593.00
2023-04-19T09:14:40.045Z,589.00
2023-04-19T09:15:36.311Z,592.00
2023-04-19T09:16:37.008Z,592.00
2023-04-19T09:17:37.051Z,593.00
2023-04-19T09:18:42.574Z,593.00
2023-04-19T09:19:36.254Z,592.00
2023-04-19T09:20:36.511Z,593.00
2023-04-19T09:21:36.264Z,592.00
2023-04-19T09:22:36.239Z,592.00
2023-04-19T09:23:36.240Z,588.00
2023-04-19T09:25:04.401Z,585.00
2023-04-19T09:25:49.270Z,586.00
2023-04-19T09:26:36.214Z,586.00
2023-04-19T09:27:36.232Z,588.00
2023-04-19T09:28:36.211Z,589.00
2023-04-19T09:29:36.190Z,588.00
2023-04-19T09:30:43.593Z,590.00
2023-04-19T09:32:36.295Z,586.00
2023-04-19T09:33:36.302Z,588.00
2023-04-19T09:34:36.149Z,591.00
2023-04-19T09:35:36.527Z,591.00
2023-04-19T09:36:36.503Z,595.00
2023-04-19T09:38:01.182Z,593.00
2023-04-19T09:38:36.224Z,594.00
2023-04-19T09:39:36.115Z,595.00
2023-04-19T09:40:36.099Z,596.00
2023-04-19T09:41:38.754Z,598.00
2023-04-19T09:42:55.482Z,593.00
2023-04-19T09:43:57.815Z,594.00
2023-04-19T09:45:36.073Z,595.00
2023-04-19T09:46:36.103Z,598.00
2023-04-19T09:47:36.070Z,599.00
2023-04-19T09:48:36.039Z,602.00
2023-04-19T09:50:42.656Z,602.00
2023-04-19T09:51:36.037Z,602.00
2023-04-19T09:52:36.019Z,597.00
2023-04-19T09:53:36.021Z,595.00
2023-04-19T09:54:37.003Z,594.00
2023-04-19T09:55:48.975Z,591.00
2023-04-19T09:56:35.981Z,602.00
2023-04-19T09:57:35.982Z,602.00
2023-04-19T09:59:34.961Z,602.00
2023-04-19T10:00:47.868Z,601.00
2023-04-19T10:01:36.105Z,603.00
2023-04-19T10:02:36.343Z,603.00
2023-04-19T10:03:36.175Z,601.00
2023-04-19T10:04:56.975Z,601.00
2023-04-19T10:05:36.119Z,602.00
2023-04-19T10:06:58.425Z,603.00
2023-04-19T10:07:35.922Z,603.00
2023-04-19T10:08:35.900Z,604.00
2023-04-19T10:09:42.661Z,602.00
2023-04-19T10:10:41.743Z,602.00
2023-04-19T10:11:37.164Z,603.00
2023-04-19T10:12:58.556Z,603.00
2023-04-19T10:13:36.375Z,603.00
2023-04-19T10:14:35.860Z,602.00
2023-04-19T10:15:49.325Z,601.00
2023-04-19T10:16:36.293Z,603.00
2023-04-19T10:17:36.428Z,604.00
2023-04-19T10:18:36.274Z,599.00
2023-04-19T10:19:35.834Z,598.00
2023-04-19T10:20:36.013Z,595.00
2023-04-19T10:21:35.885Z,598.00
2023-04-19T10:22:35.804Z,599.00
2023-04-19T10:23:35.802Z,590.00
2023-04-19T10:24:35.791Z,588.00
2023-04-19T10:25:36.231Z,585.00
2023-04-19T10:26:35.775Z,590.00
2023-04-19T10:27:35.776Z,590.00
2023-04-19T10:28:35.761Z,583.00
2023-04-19T10:29:35.763Z,586.00
2023-04-19T10:30:36.018Z,583.00
2023-04-19T10:31:35.789Z,587.00
2023-04-19T10:32:35.785Z,589.00
2023-04-19T10:33:35.741Z,587.00
2023-04-19T10:34:35.723Z,582.00
2023-04-19T10:35:35.732Z,583.00
2023-04-19T10:36:35.717Z,589.00
2023-04-19T10:37:35.731Z,588.00
2023-04-19T10:38:35.700Z,585.00
2023-04-19T10:39:35.683Z,586.00
2023-04-19T10:40:35.677Z,586.00
2023-04-19T10:41:36.037Z,581.00
2023-04-19T10:42:35.683Z,586.00
2023-04-19T10:43:35.708Z,588.00
2023-04-19T10:44:35.740Z,581.00
2023-04-19T10:45:35.826Z,583.00
2023-04-19T10:46:36.051Z,580.00
2023-04-19T10:47:36.048Z,584.00
2023-04-19T10:48:35.842Z,580.00
2023-04-19T10:49:35.837Z,584.00
2023-04-19T10:50:35.862Z,583.00
2023-04-19T10:51:36.033Z,583.00
2023-04-19T10:52:35.912Z,582.00
2023-04-19T10:53:35.977Z,580.00
2023-04-19T10:54:35.966Z,585.00
2023-04-19T10:55:35.998Z,580.00
2023-04-19T10:56:36.417Z,579.00
2023-04-19T10:57:36.068Z,581.00
2023-04-19T10:58:36.069Z,582.00
2023-04-19T10:59:36.108Z,587.00
2023-04-19T11:00:36.127Z,585.00
2023-04-19T11:01:36.275Z,584.00
2023-04-19T11:02:36.664Z,592.00
2023-04-19T11:03:36.662Z,585.00
2023-04-19T11:04:36.602Z,582.00
2023-04-19T11:05:36.486Z,581.00
2023-04-19T11:06:36.508Z,586.00
2023-04-19T11:07:36.491Z,586.00
2023-04-19T11:08:36.490Z,584.00
2023-04-19T11:09:36.534Z,588.00
2023-04-19T11:10:36.504Z,589.00
2023-04-19T11:11:37.264Z,583.00
2023-04-19T11:12:36.510Z,584.00
2023-04-19T11:13:36.528Z,588.00
2023-04-19T11:14:36.581Z,587.00
2023-04-19T11:15:36.596Z,583.00
2023-04-19T11:16:45.843Z,584.00
2023-04-19T11:17:37.049Z,584.00
2023-04-19T11:18:36.617Z,586.00
2023-04-19T11:19:36.577Z,588.00
2023-04-19T11:20:36.566Z,587.00
2023-04-19T11:21:36.568Z,592.00
2023-04-19T11:22:36.567Z,594.00
2023-04-19T11:23:36.542Z,588.00
2023-04-19T11:24:36.542Z,589.00
2023-04-19T11:25:36.560Z,589.00
2023-04-19T11:26:36.540Z,587.00
2023-04-19T11:27:36.517Z,589.00
2023-04-19T11:28:36.526Z,595.00
2023-04-19T11:29:36.523Z,591.00
2023-04-19T11:30:36.517Z,589.00
2023-04-19T11:31:36.547Z,589.00
2023-04-19T11:32:36.594Z,587.00
2023-04-19T11:33:36.521Z,588.00
2023-04-19T11:34:36.557Z,588.00
2023-04-19T11:35:37.034Z,592.00
2023-04-19T11:36:36.519Z,591.00
2023-04-19T11:37:36.713Z,592.00
2023-04-19T11:38:36.505Z,592.00
2023-04-19T11:39:37.044Z,588.00
2023-04-19T11:40:36.500Z,591.00
2023-04-19T11:41:36.570Z,589.00
2023-04-19T11:42:37.039Z,589.00
2023-04-19T11:43:37.059Z,592.00
2023-04-19T11:44:36.515Z,590.00
2023-04-19T11:46:35.617Z,593.00
2023-04-19T11:47:36.581Z,593.00
2023-04-19T11:48:36.514Z,596.00
2023-04-19T11:49:37.052Z,591.00
2023-04-19T11:50:36.513Z,593.00
2023-04-19T11:51:36.560Z,594.00
2023-04-19T11:52:36.569Z,592.00
2023-04-19T11:53:36.517Z,593.00
2023-04-19T11:54:36.529Z,593.00
2023-04-19T11:55:36.522Z,592.00
2023-04-19T11:56:36.553Z,589.00
2023-04-19T11:57:36.539Z,588.00
2023-04-19T11:58:36.524Z,593.00
2023-04-19T11:59:36.632Z,592.00
2023-04-19T12:00:37.068Z,595.00
2023-04-19T12:01:36.562Z,593.00
2023-04-19T12:02:36.749Z,592.00
2023-04-19T12:03:37.093Z,597.00
2023-04-19T12:04:37.725Z,595.00
2023-04-19T12:05:36.824Z,598.00
2023-04-19T12:06:37.059Z,594.00
2023-04-19T12:07:37.551Z,595.00
2023-04-19T12:08:36.676Z,594.00
2023-04-19T12:09:36.716Z,595.00
2023-04-19T12:10:36.728Z,597.00
2023-04-19T12:11:37.056Z,598.00
2023-04-19T12:12:36.737Z,595.00
2023-04-19T12:13:36.816Z,595.00
2023-04-19T12:14:37.054Z,595.00
2023-04-19T12:15:36.780Z,596.00
2023-04-19T12:16:36.838Z,597.00
2023-04-19T12:17:40.043Z,599.00
2023-04-19T12:18:36.816Z,600.00
2023-04-19T12:19:36.803Z,601.00
2023-04-19T12:20:36.820Z,600.00
2023-04-19T12:21:36.779Z,600.00
2023-04-19T12:22:36.775Z,597.00
2023-04-19T12:23:36.768Z,603.00
2023-04-19T12:24:36.777Z,597.00
2023-04-19T12:25:36.761Z,599.00
2023-04-19T12:26:36.774Z,600.00
2023-04-19T12:27:36.752Z,602.00
2023-04-19T12:28:36.736Z,603.00
2023-04-19T12:29:36.770Z,599.00
2023-04-19T12:30:36.760Z,597.00
2023-04-19T12:31:37.098Z,595.00
2023-04-19T12:32:36.742Z,602.00
2023-04-19T12:33:36.694Z,597.00
2023-04-19T12:34:37.072Z,597.00